Time;durP1;ratioP1;P1;durP2;ratioP2;P2;SDS_P1;SDS_P2;PMS_P1;PMS_P2;Temp;Humidity;BMP_temperature;BMP_pressure;BME280_temperature;BME280_humidity;BME280_pressure;Samples;Min_cycle;Max_cycle;Signal;HPM_P1;HPM_P2
2023/08/28 00:01:00;;;;;;;0.10;0.10;;;;;;;16.86;67.03;101224.72;5106503;28;20070;-79
2023/08/28 00:03:26;;;;;;;0.03;0.03;;;;;;;16.88;66.93;101225.50;5100684;28;20028;-80
2023/08/28 00:05:52;;;;;;;0.45;0.45;;;;;;;16.88;66.81;101227.31;5103762;28;20538;-80
2023/08/28 00:08:18;;;;;;;0.10;0.10;;;;;;;16.89;66.94;101224.56;5101400;28;20020;-81
2023/08/28 00:10:44;;;;;;;0.10;0.10;;;;;;;16.90;66.99;101233.50;5117126;28;20023;-83
2023/08/28 00:13:11;;;;;;;0.10;0.10;;;;;;;16.90;67.32;101234.34;5119031;28;20028;-80
2023/08/28 00:15:37;;;;;;;0.10;0.10;;;;;;;16.87;67.33;101226.44;5107300;28;20111;-78
2023/08/28 00:18:04;;;;;;;1.42;0.40;;;;;;;16.89;66.85;101235.28;5111023;28;20031;-77
2023/08/28 00:20:30;;;;;;;0.10;0.10;;;;;;;16.86;67.04;101230.06;5103260;28;20019;-80
2023/08/28 00:22:56;;;;;;;0.10;0.10;;;;;;;16.84;67.71;101233.75;5118190;28;20047;-81
2023/08/28 00:25:22;;;;;;;0.10;0.10;;;;;;;16.81;67.26;101232.06;5115230;28;20032;-80
2023/08/28 00:27:48;;;;;;;0.10;0.10;;;;;;;16.78;68.21;101227.69;5110203;28;20484;-81
2023/08/28 00:30:14;;;;;;;0.40;0.30;;;;;;;16.80;68.22;101230.31;5114776;28;20028;-78
2023/08/28 00:32:40;;;;;;;0.10;0.10;;;;;;;16.84;68.36;101236.41;5113679;28;20035;-80
2023/08/28 00:35:07;;;;;;;0.10;0.10;;;;;;;16.84;68.48;101236.41;5122721;28;20031;-81
2023/08/28 00:37:33;;;;;;;0.10;0.10;;;;;;;16.86;68.27;101237.22;5132023;28;20072;-78
2023/08/28 00:39:59;;;;;;;0.10;0.10;;;;;;;16.87;68.52;101242.50;5126847;28;20038;-77
2023/08/28 00:42:25;;;;;;;0.10;0.10;;;;;;;16.91;68.41;101237.88;5125569;28;20040;-77
2023/08/28 00:44:51;;;;;;;0.10;0.10;;;;;;;16.93;68.68;101236.06;5119431;28;20039;-79
2023/08/28 00:47:17;;;;;;;0.10;0.10;;;;;;;16.96;68.38;101235.97;5120952;28;20047;-78
2023/08/28 00:49:44;;;;;;;0.10;0.10;;;;;;;16.97;68.61;101235.00;5125346;28;20023;-76
2023/08/28 00:52:11;;;;;;;0.10;0.10;;;;;;;16.97;67.85;101226.97;5119204;28;20039;-76
2023/08/28 00:54:41;;;;;;;0.10;0.10;;;;;;;16.97;68.37;101221.63;5114639;28;20024;-78
2023/08/28 00:57:09;;;;;;;0.10;0.10;;;;;;;16.94;68.74;101232.47;5114719;28;20035;-78
2023/08/28 00:59:36;;;;;;;0.28;0.28;;;;;;;16.92;68.11;101235.22;5114381;28;20678;-78
2023/08/28 01:02:03;;;;;;;0.00;0.00;;;;;;;16.89;68.61;101229.06;5124456;28;20028;-77
2023/08/28 01:04:31;;;;;;;0.00;0.00;;;;;;;16.85;68.56;101227.44;5123732;28;20016;-81
2023/08/28 01:07:17;;;;;;;0.10;0.10;;;;;;;16.86;68.19;101234.53;5121031;28;20043;-78
2023/08/28 01:12:54;;;;;;;0.10;0.10;;;;;;;16.79;67.97;101229.41;5118310;27;1149673;-80
2023/08/28 01:15:23;;;;;;;0.52;0.52;;;;;;;16.73;67.96;101223.47;5140378;28;20300;-80
2023/08/28 01:17:55;;;;;;;0.10;0.10;;;;;;;16.70;68.47;101224.44;5119773;27;20047;-81
2023/08/28 01:20:23;;;;;;;0.10;0.10;;;;;;;16.66;68.29;101225.50;5109216;28;20178;-81
2023/08/28 01:25:29;;;;;;;0.10;0.10;;;;;;;16.60;68.11;101225.75;5102811;27;20389;-81
2023/08/28 01:27:58;;;;;;;0.10;0.10;;;;;;;16.56;68.40;101222.31;5095245;28;20032;-81
2023/08/28 01:30:24;;;;;;;0.10;0.10;;;;;;;16.57;68.26;101220.50;5095101;28;20028;-81
2023/08/28 01:32:50;;;;;;;0.10;0.10;;;;;;;16.56;68.29;101216.09;5101931;28;20031;-80
2023/08/28 01:35:20;;;;;;;0.10;0.10;;;;;;;16.55;68.04;101209.00;5101611;28;20024;-79
2023/08/28 01:40:43;;;;;;;0.03;0.03;;;;;;;16.54;67.95;101212.63;5071535;27;20415;-80
2023/08/28 01:43:13;;;;;;;0.10;0.10;;;;;;;16.53;68.19;101210.88;5052325;28;20494;-80
2023/08/28 01:45:39;;;;;;;0.10;0.10;;;;;;;16.50;67.97;101207.38;5055686;28;20112;-78
2023/08/28 01:48:06;;;;;;;0.00;0.00;;;;;;;16.48;67.90;101203.03;5058226;28;20073;-80
2023/08/28 01:50:32;;;;;;;0.10;0.10;;;;;;;16.44;68.31;101201.41;5061464;28;20018;-79
2023/08/28 01:52:59;;;;;;;0.00;0.00;;;;;;;16.40;68.29;101200.66;5060496;28;20072;-78
2023/08/28 01:58:22;;;;;;;0.10;0.10;;;;;;;16.35;68.00;101207.97;5092264;28;20055;-80
2023/08/28 02:00:48;;;;;;;0.10;0.10;;;;;;;16.31;68.20;101211.69;5062810;28;20068;-80
2023/08/28 02:03:14;;;;;;;0.10;0.10;;;;;;;16.29;67.98;101216.25;5062993;28;20037;-81
2023/08/28 02:05:40;;;;;;;0.20;0.20;;;;;;;16.26;68.07;101221.69;5063048;28;20499;-81
2023/08/28 02:08:06;;;;;;;0.10;0.10;;;;;;;16.25;68.38;101217.25;5060785;28;20028;-80
2023/08/28 02:10:32;;;;;;;0.10;0.10;;;;;;;16.24;68.21;101215.53;5055834;28;20029;-80
2023/08/28 02:12:58;;;;;;;0.10;0.10;;;;;;;16.23;68.38;101213.78;5055993;28;20083;-80
2023/08/28 02:15:24;;;;;;;0.10;0.10;;;;;;;16.23;68.10;101211.13;5055065;28;20051;-80
2023/08/28 02:17:50;;;;;;;0.10;0.10;;;;;;;16.23;68.22;101217.31;5055013;28;20017;-80
2023/08/28 02:20:16;;;;;;;0.10;0.10;;;;;;;16.22;68.27;101207.56;5054769;28;20041;-79
2023/08/28 02:22:42;;;;;;;0.00;0.00;;;;;;;16.23;68.45;101203.97;5054965;28;20040;-78
2023/08/28 02:25:09;;;;;;;0.10;0.10;;;;;;;16.24;68.42;101204.84;5053923;28;20025;-79
2023/08/28 02:27:35;;;;;;;1.08;0.75;;;;;;;16.24;68.78;101195.00;5054057;28;20029;-78
2023/08/28 02:30:01;;;;;;;0.10;0.10;;;;;;;16.25;68.59;101193.19;5052423;28;20040;-80
2023/08/28 02:32:27;;;;;;;0.10;0.10;;;;;;;16.25;68.43;101186.06;5052227;28;20075;-78
2023/08/28 02:34:53;;;;;;;0.10;0.10;;;;;;;16.25;68.67;101187.84;5053981;28;20477;-77
2023/08/28 02:37:19;;;;;;;0.00;0.00;;;;;;;16.24;68.93;101183.47;5053778;28;20040;-76
2023/08/28 02:39:45;;;;;;;0.10;0.10;;;;;;;16.22;68.85;101169.28;5054892;28;20117;-77
2023/08/28 02:42:11;;;;;;;0.10;0.10;;;;;;;16.18;68.89;101172.03;5054248;28;20041;-78
2023/08/28 02:44:37;;;;;;;0.10;0.10;;;;;;;16.20;69.07;101173.78;5053408;28;20040;-78
2023/08/28 02:47:04;;;;;;;0.10;0.10;;;;;;;16.17;69.06;101172.13;5052340;28;20017;-77
2023/08/28 02:49:30;;;;;;;0.10;0.10;;;;;;;16.14;69.44;101189.13;5054755;28;20560;-80
2023/08/28 02:51:56;;;;;;;0.10;0.10;;;;;;;16.12;69.43;101185.66;5052419;28;20098;-80
2023/08/28 02:54:22;;;;;;;0.20;0.20;;;;;;;16.10;69.49;101190.19;5053283;28;20029;-79
2023/08/28 02:56:49;;;;;;;0.22;0.22;;;;;;;16.10;69.43;101187.53;5052280;28;20052;-80
2023/08/28 02:59:15;;;;;;;0.10;0.10;;;;;;;16.08;69.50;101178.69;5053732;28;20124;-79
2023/08/28 03:01:41;;;;;;;0.10;0.10;;;;;;;16.10;68.86;101182.19;5057089;28;20040;-77
2023/08/28 03:04:07;;;;;;;0.10;0.10;;;;;;;16.08;69.84;101183.16;5057659;28;20025;-81
2023/08/28 03:06:35;;;;;;;0.10;0.10;;;;;;;16.10;69.81;101178.63;5054180;28;20104;-80
2023/08/28 03:09:02;;;;;;;0.10;0.10;;;;;;;16.08;70.01;101177.81;5044622;28;20022;-80
2023/08/28 03:11:28;;;;;;;0.10;0.10;;;;;;;16.08;69.90;101178.69;5039275;28;20052;-79
2023/08/28 03:13:55;;;;;;;0.03;0.03;;;;;;;16.08;70.07;101173.34;5040810;28;20528;-80
2023/08/28 03:16:21;;;;;;;0.15;0.15;;;;;;;16.08;70.26;101178.69;5040949;28;20033;-78
2023/08/28 03:18:49;;;;;;;0.15;0.15;;;;;;;16.09;70.41;101185.78;5041147;28;20029;-79
2023/08/28 03:21:15;;;;;;;0.08;0.08;;;;;;;16.08;70.27;101194.72;5040701;28;20072;-80
2023/08/28 03:23:41;;;;;;;0.10;0.10;;;;;;;16.07;70.43;101198.31;5040197;28;20054;-80
2023/08/28 03:26:08;;;;;;;0.20;0.20;;;;;;;16.04;70.45;101201.13;5038951;28;20120;-80
2023/08/28 03:28:34;;;;;;;0.20;0.20;;;;;;;16.06;70.60;101206.41;5040950;28;20040;-80
2023/08/28 03:31:01;;;;;;;0.10;0.10;;;;;;;16.07;70.71;101206.34;5040654;28;20112;-80
2023/08/28 03:33:28;;;;;;;0.10;0.10;;;;;;;16.07;70.80;101209.00;5041149;28;20088;-80
2023/08/28 03:35:54;;;;;;;0.10;0.10;;;;;;;16.10;70.30;101206.22;5037812;28;20032;-80
2023/08/28 03:38:21;;;;;;;0.20;0.20;;;;;;;16.14;70.34;101210.53;5038104;28;20495;-80
2023/08/28 03:40:47;;;;;;;0.10;0.10;;;;;;;16.18;70.63;101217.50;5037861;28;20105;-80
2023/08/28 03:43:13;;;;;;;0.10;0.10;;;;;;;16.21;70.13;101212.97;5037550;28;20037;-80
2023/08/28 03:45:40;;;;;;;0.10;0.10;;;;;;;16.26;70.72;101213.66;5037887;28;20021;-80
2023/08/28 03:48:06;;;;;;;0.20;0.20;;;;;;;16.31;70.08;101211.69;5038927;28;20025;-80
2023/08/28 03:50:32;;;;;;;0.10;0.10;;;;;;;16.34;70.35;101216.94;5038620;28;20056;-78
2023/08/28 03:53:00;;;;;;;0.10;0.10;;;;;;;16.40;70.39;101223.81;5039871;28;20101;-79
2023/08/28 03:55:29;;;;;;;1.15;1.08;;;;;;;16.46;70.65;101226.25;5037656;28;20036;-77
2023/08/28 03:57:56;;;;;;;0.10;0.10;;;;;;;16.53;70.52;101230.47;5038420;28;20029;-80
2023/08/28 04:00:22;;;;;;;0.10;0.10;;;;;;;16.58;70.69;101235.63;5038774;28;20033;-78
2023/08/28 04:02:48;;;;;;;0.10;0.10;;;;;;;16.63;71.02;101236.31;5037975;28;20410;-81
2023/08/28 04:05:16;;;;;;;0.10;0.10;;;;;;;16.70;70.77;101240.50;5038160;28;20032;-81
2023/08/28 04:07:43;;;;;;;0.10;0.10;;;;;;;16.77;70.32;101239.34;5038364;28;20093;-81
2023/08/28 04:10:10;;;;;;;0.05;0.05;;;;;;;16.80;70.82;101241.88;5037847;28;20025;-80
2023/08/28 04:12:37;;;;;;;0.10;0.10;;;;;;;16.84;70.85;101241.78;5037098;28;20036;-80
2023/08/28 04:15:04;;;;;;;0.10;0.10;;;;;;;16.87;70.70;101244.31;5037923;28;20320;-77
2023/08/28 04:17:30;;;;;;;0.10;0.10;;;;;;;16.91;70.92;101244.16;5039826;28;20021;-79
2023/08/28 04:19:57;;;;;;;0.10;0.10;;;;;;;16.93;70.69;101244.09;5039613;28;20038;-80
2023/08/28 04:22:23;;;;;;;0.10;0.10;;;;;;;16.95;70.61;101255.63;5038261;28;20026;-76
2023/08/28 04:24:51;;;;;;;0.10;0.10;;;;;;;16.95;70.59;101260.97;5037083;28;20064;-79
2023/08/28 04:27:17;;;;;;;0.10;0.10;;;;;;;16.96;70.39;101262.72;5039496;28;20030;-80
2023/08/28 04:29:43;;;;;;;0.10;0.10;;;;;;;16.99;70.24;101262.59;5038902;28;20048;-78
2023/08/28 04:32:10;;;;;;;0.10;0.10;;;;;;;17.00;70.30;101261.66;5037865;28;20095;-80
2023/08/28 04:34:36;;;;;;;0.10;0.10;;;;;;;17.01;70.07;101258.06;5038656;28;20038;-80
2023/08/28 04:37:03;;;;;;;0.10;0.10;;;;;;;17.02;70.32;101259.78;5037012;28;20032;-80
2023/08/28 04:39:29;;;;;;;0.55;0.55;;;;;;;17.04;70.21;101262.41;5038866;28;20045;-77
2023/08/28 04:41:55;;;;;;;0.10;0.10;;;;;;;17.05;70.05;101270.38;5038077;28;20037;-78
2023/08/28 04:44:21;;;;;;;0.10;0.10;;;;;;;17.07;70.18;101271.19;5038082;28;20429;-78
2023/08/28 04:46:47;;;;;;;0.10;0.10;;;;;;;17.08;70.38;101275.59;5037406;28;20017;-78
2023/08/28 04:49:14;;;;;;;0.10;0.10;;;;;;;17.11;70.26;101278.16;5038205;28;20059;-78
2023/08/28 04:51:41;;;;;;;0.25;0.25;;;;;;;17.13;70.35;101278.09;5038958;28;20025;-80
2023/08/28 04:54:07;;;;;;;0.10;0.10;;;;;;;17.16;70.06;101286.00;5038730;28;20037;-76
2023/08/28 04:56:33;;;;;;;0.10;0.10;;;;;;;17.18;70.37;101272.56;5038172;28;20078;-79
2023/08/28 04:59:00;;;;;;;0.10;0.10;;;;;;;17.20;70.31;101278.72;5038806;28;20037;-76
2023/08/28 05:01:26;;;;;;;1.38;0.45;;;;;;;17.22;70.35;101284.88;5034487;28;20033;-78
2023/08/28 05:03:52;;;;;;;0.10;0.10;;;;;;;17.27;70.41;101285.56;5036816;28;20040;-77
2023/08/28 05:06:18;;;;;;;0.10;0.10;;;;;;;17.30;70.17;101290.81;5036164;28;20092;-77
2023/08/28 05:08:44;;;;;;;0.10;0.10;;;;;;;17.33;70.03;101287.97;5037201;28;20061;-76
2023/08/28 05:11:10;;;;;;;0.10;0.10;;;;;;;17.37;70.31;101291.41;5034405;28;20495;-78
2023/08/28 05:13:36;;;;;;;0.10;0.10;;;;;;;17.41;70.17;101293.91;5034752;28;20406;-78
2023/08/28 05:16:03;;;;;;;0.00;0.00;;;;;;;17.43;70.20;101288.47;5038708;28;20491;-77
2023/08/28 05:18:29;;;;;;;0.10;0.10;;;;;;;17.45;70.09;101282.13;5038996;28;20045;-77
2023/08/28 05:20:55;;;;;;;0.10;0.10;;;;;;;17.51;69.85;101286.34;5038918;28;20025;-78
2023/08/28 05:23:25;;;;;;;0.10;0.10;;;;;;;17.53;70.07;101280.94;5037720;28;20044;-77
2023/08/28 05:25:53;;;;;;;0.10;0.10;;;;;;;17.58;69.70;101286.97;5042199;28;20029;-79
2023/08/28 05:28:20;;;;;;;0.20;0.20;;;;;;;17.59;70.01;101283.34;5044694;28;20296;-79
2023/08/28 05:30:46;;;;;;;0.10;0.10;;;;;;;17.60;69.86;101282.41;5044077;28;20148;-79
2023/08/28 05:33:12;;;;;;;0.10;0.10;;;;;;;17.63;70.14;101279.59;5042490;28;20168;-76
2023/08/28 05:35:39;;;;;;;0.10;0.10;;;;;;;17.68;69.92;101277.56;5038343;28;20038;-77
2023/08/28 05:38:06;;;;;;;0.10;0.10;;;;;;;17.72;69.88;101286.34;5041074;28;20025;-79
2023/08/28 05:40:32;;;;;;;0.20;0.20;;;;;;;17.75;69.89;101279.06;5041052;28;20065;-79
2023/08/28 05:42:58;;;;;;;0.10;0.10;;;;;;;17.79;69.95;101278.00;5040959;28;20033;-78
2023/08/28 05:45:24;;;;;;;0.10;0.10;;;;;;;17.83;69.82;101285.91;5041239;28;20048;-79
2023/08/28 05:47:51;;;;;;;0.25;0.25;;;;;;;17.87;69.96;101282.16;5042696;28;20045;-79
2023/08/28 05:50:18;;;;;;;0.43;0.43;;;;;;;17.90;69.98;101282.03;5042736;28;20045;-79
2023/08/28 05:52:45;;;;;;;0.10;0.10;;;;;;;17.93;69.70;101287.25;5039531;28;20060;-79
2023/08/28 05:55:11;;;;;;;0.10;0.10;;;;;;;17.95;69.80;101290.78;5034489;28;20068;-79
2023/08/28 05:57:37;;;;;;;0.10;0.10;;;;;;;17.95;69.94;101282.72;5038200;28;20061;-80
2023/08/28 06:00:04;;;;;;;0.10;0.10;;;;;;;17.99;69.77;101278.97;5038899;28;20040;-79
2023/08/28 06:02:30;;;;;;;0.10;0.10;;;;;;;18.04;69.75;101279.63;5038904;28;20297;-80
2023/08/28 06:04:56;;;;;;;0.10;0.10;;;;;;;18.05;69.99;101270.66;5039167;28;20110;-80
2023/08/28 06:07:23;;;;;;;0.10;0.10;;;;;;;18.10;69.75;101268.63;5039945;28;20022;-80
2023/08/28 06:09:49;;;;;;;0.10;0.10;;;;;;;18.15;69.65;101284.53;5039423;28;20029;-80
2023/08/28 06:12:15;;;;;;;0.10;0.10;;;;;;;18.19;69.77;101269.16;5037309;28;20526;-79
2023/08/28 06:14:41;;;;;;;0.10;0.10;;;;;;;18.25;69.76;101277.78;5038459;28;20030;-80
2023/08/28 06:17:07;;;;;;;0.10;0.10;;;;;;;18.29;69.79;101273.16;5040431;28;20021;-79
2023/08/28 06:19:33;;;;;;;0.10;0.10;;;;;;;18.38;69.64;101275.44;5037246;28;20049;-80
2023/08/28 06:22:03;;;;;;;0.10;0.10;;;;;;;18.41;69.92;101277.09;5037348;28;20406;-79
2023/08/28 06:24:29;;;;;;;0.10;0.10;;;;;;;18.48;69.66;101272.31;5037197;28;20176;-80
2023/08/28 06:26:55;;;;;;;0.10;0.10;;;;;;;18.51;69.43;101270.38;5038672;28;20025;-81
2023/08/28 06:29:21;;;;;;;0.10;0.10;;;;;;;18.54;69.29;101274.72;5038311;28;20041;-80
2023/08/28 06:31:47;;;;;;;0.20;0.20;;;;;;;18.57;69.22;101275.44;5041283;28;20025;-80
2023/08/28 06:34:14;;;;;;;0.10;0.10;;;;;;;18.59;69.28;101270.88;5040754;28;20459;-80
2023/08/28 06:36:41;;;;;;;0.10;0.10;;;;;;;18.67;69.18;101278.56;5038072;28;20060;-80
2023/08/28 06:39:07;;;;;;;0.10;0.10;;;;;;;18.65;69.44;101283.13;5036941;28;20038;-81
2023/08/28 06:41:33;;;;;;;0.00;0.00;;;;;;;18.73;69.41;101280.13;5036610;28;20056;-80
2023/08/28 06:44:00;;;;;;;0.10;0.10;;;;;;;18.76;69.31;101280.81;5036359;28;20037;-79
2023/08/28 06:46:26;;;;;;;0.10;0.10;;;;;;;18.81;69.22;101280.59;5044946;28;20032;-80
2023/08/28 06:48:53;;;;;;;0.10;0.10;;;;;;;18.85;69.17;101279.50;5040804;28;20033;-80
2023/08/28 06:51:20;;;;;;;0.10;0.10;;;;;;;18.96;69.18;101284.41;5042486;28;20085;-79
2023/08/28 06:53:48;;;;;;;0.10;0.10;;;;;;;19.02;68.78;101281.41;5040800;28;20021;-80
2023/08/28 06:56:14;;;;;;;0.25;0.25;;;;;;;19.04;68.91;101284.91;5040837;28;20049;-80
2023/08/28 06:58:40;;;;;;;0.10;0.10;;;;;;;19.06;68.90;101291.06;5039367;28;20041;-80
2023/08/28 07:01:06;;;;;;;0.20;0.20;;;;;;;19.15;68.63;101295.13;5040725;28;20056;-80
2023/08/28 07:03:32;;;;;;;0.10;0.10;;;;;;;19.20;68.72;101292.19;5041758;28;20060;-82
2023/08/28 07:05:59;;;;;;;0.10;0.10;;;;;;;19.24;68.50;101296.50;5039800;28;20030;-81
2023/08/28 07:08:25;;;;;;;0.10;0.10;;;;;;;19.27;68.42;101292.78;5039774;28;20056;-81
2023/08/28 07:10:51;;;;;;;0.10;0.10;;;;;;;19.24;68.63;101300.03;5042795;28;20079;-79
2023/08/28 07:13:17;;;;;;;0.10;0.10;;;;;;;19.24;68.53;101299.19;5042577;28;20056;-81
2023/08/28 07:18:21;;;;;;;0.10;0.10;;;;;;;19.36;68.38;101297.69;5112035;27;20332;-80
2023/08/28 07:20:47;;;;;;;0.10;0.10;;;;;;;19.41;68.14;101301.00;5098529;28;20055;-80
2023/08/28 07:23:13;;;;;;;0.10;0.10;;;;;;;19.42;67.99;101301.91;5099275;28;20036;-80
2023/08/28 07:25:39;;;;;;;0.10;0.10;;;;;;;19.43;67.99;101304.50;5095980;28;20064;-80
2023/08/28 07:28:07;;;;;;;0.10;0.10;;;;;;;19.45;68.03;101297.25;5098341;28;20039;-81
2023/08/28 07:30:33;;;;;;;1.45;1.05;;;;;;;19.48;67.87;101298.91;5095525;28;20051;-80
2023/08/28 07:32:59;;;;;;;0.10;0.10;;;;;;;19.47;67.24;101294.47;5100817;28;20032;-79
2023/08/28 07:35:29;;;;;;;0.00;0.00;;;;;;;19.49;67.31;101300.63;5098275;28;20043;-80
2023/08/28 07:37:55;;;;;;;0.40;0.40;;;;;;;19.52;67.14;101297.78;5093560;28;20058;-80
2023/08/28 07:40:21;;;;;;;0.10;0.10;;;;;;;19.56;67.22;101299.38;5088182;28;20037;-81
2023/08/28 07:42:47;;;;;;;0.00;0.00;;;;;;;19.59;67.18;101298.34;5094738;28;20602;-81
2023/08/28 07:45:13;;;;;;;0.10;0.10;;;;;;;19.62;66.85;101301.75;5098075;28;20032;-80
2023/08/28 07:47:39;;;;;;;0.10;0.10;;;;;;;19.63;66.30;101295.44;5101213;28;20025;-81
2023/08/28 07:50:05;;;;;;;0.00;0.00;;;;;;;19.65;65.72;101298.91;5096045;28;20471;-81
2023/08/28 07:52:31;;;;;;;0.17;0.17;;;;;;;19.71;65.85;101303.97;5094761;28;20032;-80
2023/08/28 07:54:57;;;;;;;0.20;0.20;;;;;;;19.78;66.01;101309.03;5090634;28;20040;-80
2023/08/28 07:57:23;;;;;;;1.55;0.38;;;;;;;19.83;65.74;101307.03;5094936;28;20057;-81
2023/08/28 07:59:50;;;;;;;0.38;0.38;;;;;;;19.85;64.11;101308.69;5096327;28;20020;-81
2023/08/28 08:02:16;;;;;;;0.10;0.10;;;;;;;19.91;64.26;101304.78;5096548;28;20032;-81
2023/08/28 08:04:42;;;;;;;0.10;0.10;;;;;;;19.97;64.71;101303.59;5092626;28;20020;-81
2023/08/28 08:07:08;;;;;;;0.10;0.10;;;;;;;20.01;63.28;101314.13;5091296;28;20566;-81
2023/08/28 08:09:34;;;;;;;0.10;0.10;;;;;;;20.08;63.57;101319.19;5092550;28;20747;-81
2023/08/28 08:12:02;;;;;;;0.68;0.68;;;;;;;20.14;63.43;101316.19;5095013;28;20432;-81
2023/08/28 08:14:28;;;;;;;0.10;0.10;;;;;;;20.19;62.99;101316.81;5093691;28;20507;-80
2023/08/28 08:16:54;;;;;;;0.10;0.10;;;;;;;20.23;63.23;101323.75;5093358;28;20043;-80
2023/08/28 08:19:20;;;;;;;0.10;0.10;;;;;;;20.27;63.32;101322.63;5095590;28;20043;-81
2023/08/28 08:21:46;;;;;;;0.10;0.10;;;;;;;20.31;62.19;101326.91;5085494;28;20025;-81
2023/08/28 08:24:12;;;;;;;0.10;0.10;;;;;;;20.36;61.44;101332.91;5093216;28;20083;-80
2023/08/28 08:26:38;;;;;;;0.00;0.00;;;;;;;20.47;62.54;101323.38;5095432;28;20020;-81
2023/08/28 08:29:04;;;;;;;0.10;0.10;;;;;;;20.56;62.76;101314.81;5071992;28;20040;-80
2023/08/28 08:31:30;;;;;;;0.10;0.10;;;;;;;20.68;62.38;101316.81;5080804;28;20128;-79
2023/08/28 08:33:56;;;;;;;0.10;0.10;;;;;;;20.83;62.04;101320.50;5077589;28;20093;-81
2023/08/28 08:36:22;;;;;;;0.30;0.30;;;;;;;20.98;61.37;101313.41;5078828;28;20033;-81
2023/08/28 08:38:48;;;;;;;0.00;0.00;;;;;;;21.15;61.54;101314.28;5080678;28;20020;-81
2023/08/28 08:41:14;;;;;;;0.10;0.10;;;;;;;21.31;62.07;101309.75;5081070;28;20031;-81
2023/08/28 08:43:41;;;;;;;0.00;0.00;;;;;;;21.46;59.62;101307.97;5071429;28;20057;-80
2023/08/28 08:46:08;;;;;;;0.10;0.10;;;;;;;21.60;58.44;101312.59;5065514;28;20052;-81
2023/08/28 08:48:36;;;;;;;0.10;0.10;;;;;;;21.79;59.02;101309.69;5082092;28;20028;-81
2023/08/28 08:51:05;;;;;;;0.10;0.10;;;;;;;21.88;56.92;101318.16;5063004;28;20502;-80
2023/08/28 08:53:48;;;;;;;0.10;0.10;;;;;;;22.02;59.03;101317.31;5073184;28;20051;-81
2023/08/28 08:56:19;;;;;;;0.00;0.00;;;;;;;22.01;58.87;101312.88;5079622;28;20649;-81
2023/08/28 08:58:47;;;;;;;0.10;0.10;;;;;;;21.97;58.42;101321.19;5076684;28;20103;-80
2023/08/28 09:01:14;;;;;;;0.10;0.10;;;;;;;21.92;57.21;101317.91;5077354;28;20052;-81
2023/08/28 09:03:41;;;;;;;0.10;0.10;;;;;;;21.89;57.57;101318.06;5080223;28;20028;-81
2023/08/28 09:06:07;;;;;;;0.10;0.10;;;;;;;21.87;57.51;101317.31;5079725;28;20096;-81
2023/08/28 09:08:36;;;;;;;0.00;0.00;;;;;;;21.84;56.78;101314.78;5073074;28;20033;-81
2023/08/28 09:11:04;;;;;;;0.10;0.10;;;;;;;21.90;57.45;101310.84;5076053;28;20036;-78
2023/08/28 09:13:31;;;;;;;0.10;0.10;;;;;;;21.97;58.09;101313.09;5083454;28;20101;-80
2023/08/28 09:15:57;;;;;;;0.08;0.08;;;;;;;22.02;55.83;101311.94;5081272;28;20032;-81
2023/08/28 09:18:25;;;;;;;0.08;0.08;;;;;;;22.11;56.95;101314.94;5079903;28;20127;-81
2023/08/28 09:21:08;;;;;;;0.20;0.20;;;;;;;22.21;52.99;101307.16;5080413;28;20025;-81
2023/08/28 09:23:40;;;;;;;0.00;0.00;;;;;;;22.24;57.50;101309.66;5076015;28;20029;-79
2023/08/28 09:26:06;;;;;;;0.05;0.05;;;;;;;22.32;55.97;101311.00;5076067;28;20037;-79
2023/08/28 09:28:32;;;;;;;0.00;0.00;;;;;;;22.41;54.84;101305.06;5079263;28;20029;-80
2023/08/28 09:30:58;;;;;;;0.20;0.20;;;;;;;22.49;54.48;101313.53;5079954;28;20055;-80
2023/08/28 09:33:24;;;;;;;0.00;0.00;;;;;;;22.59;52.42;101303.03;5082635;28;20033;-80
2023/08/28 09:35:50;;;;;;;0.10;0.10;;;;;;;22.70;51.63;101305.91;5070599;28;20033;-81
2023/08/28 09:38:18;;;;;;;0.00;0.00;;;;;;;22.88;55.48;101308.38;5081113;28;20051;-81
2023/08/28 09:40:45;;;;;;;0.98;0.95;;;;;;;23.04;53.87;101302.88;5076234;28;20028;-81
2023/08/28 09:43:13;;;;;;;0.00;0.00;;;;;;;23.18;51.86;101301.97;5071625;28;20032;-81
2023/08/28 09:45:40;;;;;;;0.10;0.10;;;;;;;23.20;49.91;101303.66;5065925;28;20033;-81
2023/08/28 09:48:08;;;;;;;0.10;0.10;;;;;;;23.32;52.81;101301.94;5071672;28;20024;-80
2023/08/28 09:50:37;;;;;;;0.00;0.00;;;;;;;23.34;52.02;101310.81;5076899;28;20036;-81
2023/08/28 09:53:07;;;;;;;0.10;0.10;;;;;;;23.31;47.89;101310.16;5080356;28;20166;-81
2023/08/28 09:55:39;;;;;;;0.00;0.00;;;;;;;23.50;50.27;101305.25;5075409;28;20486;-81
2023/08/28 09:58:10;;;;;;;0.10;0.10;;;;;;;23.59;49.71;101299.22;5081330;28;20048;-81
2023/08/28 10:00:41;;;;;;;0.10;0.10;;;;;;;23.72;50.82;101306.50;5079822;28;20032;-81
2023/08/28 10:03:09;;;;;;;0.10;0.10;;;;;;;23.78;51.14;101305.22;5081411;28;20016;-79
2023/08/28 10:05:38;;;;;;;0.05;0.05;;;;;;;23.78;49.45;101292.56;5083996;28;20032;-80
2023/08/28 10:08:07;;;;;;;0.05;0.05;;;;;;;23.82;50.42;101294.06;5090191;28;20021;-80
2023/08/28 10:10:35;;;;;;;0.10;0.10;;;;;;;23.83;50.88;101298.50;5085220;28;20121;-81
2023/08/28 10:13:04;;;;;;;0.00;0.00;;;;;;;23.82;51.07;101294.06;5084205;28;20024;-82
2023/08/28 10:15:33;;;;;;;0.00;0.00;;;;;;;23.87;52.05;101299.16;5082376;28;20028;-81
2023/08/28 10:18:07;;;;;;;0.00;0.00;;;;;;;24.04;50.01;101298.03;5081625;28;20036;-81
2023/08/28 10:20:34;;;;;;;0.00;0.00;;;;;;;24.15;51.55;101300.84;5082932;28;20025;-81
2023/08/28 10:23:03;;;;;;;0.10;0.10;;;;;;;24.31;51.74;101306.06;5082679;28;20031;-80
2023/08/28 10:25:30;;;;;;;0.10;0.10;;;;;;;24.26;47.22;101307.34;5080342;28;20025;-80
2023/08/28 10:27:58;;;;;;;0.10;0.10;;;;;;;24.23;49.72;101305.72;5080634;28;20495;-80
2023/08/28 10:30:27;;;;;;;0.03;0.03;;;;;;;24.10;47.60;101305.72;5080695;28;20094;-80
2023/08/28 10:32:55;;;;;;;0.03;0.03;;;;;;;24.00;50.28;101308.22;5080384;28;20032;-81
2023/08/28 10:35:22;;;;;;;0.10;0.10;;;;;;;23.83;47.11;101306.63;5076270;28;20047;-81
2023/08/28 10:37:51;;;;;;;0.10;0.10;;;;;;;23.80;49.89;101316.78;5080683;28;20029;-81
2023/08/28 10:40:19;;;;;;;0.10;0.10;;;;;;;23.72;49.95;101312.75;5075664;28;20036;-80
2023/08/28 10:42:46;;;;;;;0.00;0.00;;;;;;;23.68;50.77;101311.25;5081911;28;20024;-80
2023/08/28 10:45:12;;;;;;;0.00;0.00;;;;;;;23.59;49.51;101309.19;5080968;28;20079;-81
2023/08/28 10:47:39;;;;;;;0.10;0.10;;;;;;;23.51;49.73;101309.69;5079248;28;20092;-81
2023/08/28 10:50:06;;;;;;;0.00;0.00;;;;;;;23.48;49.39;101303.59;5065914;28;20025;-80
2023/08/28 10:52:32;;;;;;;0.03;0.03;;;;;;;23.67;49.94;101312.22;5077040;28;20016;-81
2023/08/28 10:55:06;;;;;;;1.30;1.20;;;;;;;23.90;50.63;101313.34;5077958;28;20081;-81
2023/08/28 10:57:34;;;;;;;0.10;0.10;;;;;;;24.04;49.23;101319.69;5080474;28;20036;-82
2023/08/28 11:00:13;;;;;;;0.08;0.08;;;;;;;24.18;48.39;101311.44;5076838;28;20028;-82
2023/08/28 11:05:41;;;;;;;0.00;0.00;;;;;;;24.38;46.96;101317.31;5119312;27;20451;-82
2023/08/28 11:08:11;;;;;;;0.00;0.00;;;;;;;24.44;48.98;101305.19;5105965;28;20048;-82
2023/08/28 11:10:39;;;;;;;0.00;0.00;;;;;;;24.44;48.75;101316.88;5099365;28;20250;-82
2023/08/28 11:13:08;;;;;;;0.00;0.00;;;;;;;24.44;49.47;101316.88;5096475;28;20039;-82
2023/08/28 11:18:29;;;;;;;0.10;0.10;;;;;;;24.33;49.72;101319.47;5109969;27;20353;-82
2023/08/28 11:21:06;;;;;;;0.30;0.30;;;;;;;24.22;49.25;101313.00;5082413;28;20067;-82
2023/08/28 11:23:36;;;;;;;0.10;0.10;;;;;;;24.08;48.87;101321.19;5088878;28;20078;-81
2023/08/28 11:26:25;;;;;;;0.00;0.00;;;;;;;23.94;49.12;101315.88;5084208;28;20112;-81
2023/08/28 11:28:51;;;;;;;0.00;0.00;;;;;;;23.71;48.26;101323.69;5091246;28;20029;-81
2023/08/28 11:31:19;;;;;;;0.10;0.10;;;;;;;23.55;48.69;101318.44;5080391;28;20036;-81
2023/08/28 11:33:52;;;;;;;0.10;0.10;;;;;;;23.44;50.41;101321.91;5083378;28;20024;-81
2023/08/28 11:36:18;;;;;;;0.10;0.10;;;;;;;23.31;49.84;101321.81;5084419;28;20094;-81
2023/08/28 11:38:46;;;;;;;0.00;0.00;;;;;;;23.21;49.63;101320.72;5083500;28;20063;-81
2023/08/28 11:41:13;;;;;;;0.00;0.00;;;;;;;23.17;51.07;101321.91;5079029;28;20108;-81
2023/08/28 11:43:41;;;;;;;0.10;0.10;;;;;;;23.09;51.50;101314.22;5082740;28;20032;-82